Time;durP1;ratioP1;P1;durP2;ratioP2;P2;SDS_P1;SDS_P2;PMS_P1;PMS_P2;Temp;Humidity;BMP_temperature;BMP_pressure;BME280_temperature;BME280_humidity;BME280_pressure;Samples;Min_cycle;Max_cycle;Signal;HPM_P1;HPM_P2
2021/03/24 00:00:06;;;;;;;;;;;;;;;19.08;36.17;100263.47;5136485;28;956;-58
2021/03/24 00:02:32;;;;;;;;;;;;;;;19.83;34.49;100259.53;5136682;28;633;-59
2021/03/24 00:04:58;;;;;;;;;;;;;;;20.45;33.42;100260.13;5137161;28;795;-56
2021/03/24 00:07:23;;;;;;;;;;;;;;;20.00;34.12;100272.69;5136798;28;763;-58
2021/03/24 00:09:49;;;;;;;;;;;;;;;20.08;33.93;100268.41;5129087;28;1129;-56
2021/03/24 00:12:14;;;;;;;;;;;;;;;19.30;35.48;100279.31;5116508;28;1910;-58
2021/03/24 00:14:40;;;;;;;;;;;;;;;19.43;35.53;100270.25;5116795;28;965;-60
2021/03/24 00:17:05;;;;;;;;;;;;;;;20.32;33.56;100272.84;5120063;28;862;-56
2021/03/24 00:19:31;;;;;;;;;;;;;;;20.30;33.73;100278.69;5119724;28;731;-59
2021/03/24 00:21:56;;;;;;;;;;;;;;;19.98;34.25;100274.16;5118280;28;799;-56
2021/03/24 00:24:22;;;;;;;;;;;;;;;19.58;34.93;100282.09;5120442;28;790;-57
2021/03/24 00:26:47;;;;;;;;;;;;;;;19.14;35.81;100276.03;5119272;28;790;-58
2021/03/24 00:29:13;;;;;;;;;;;;;;;19.87;34.48;100283.78;5119516;28;929;-57
2021/03/24 00:31:38;;;;;;;;;;;;;;;20.55;33.24;100289.44;5118835;28;1918;-58
2021/03/24 00:34:03;;;;;;;;;;;;;;;20.22;33.71;100284.13;5118988;28;787;-57
2021/03/24 00:36:29;;;;;;;;;;;;;;;20.05;34.08;100285.59;5118467;28;795;-57
2021/03/24 00:38:54;;;;;;;;;;;;;;;19.61;34.94;100287.00;5119618;28;747;-60
2021/03/24 00:41:20;;;;;;;;;;;;;;;19.56;35.07;100281.56;5119012;28;743;-54
2021/03/24 00:43:45;;;;;;;;;;;;;;;20.44;33.58;100292.44;5119510;28;787;-56
2021/03/24 00:46:11;;;;;;;;;;;;;;;20.47;33.24;100297.34;5118969;28;957;-56
2021/03/24 00:48:36;;;;;;;;;;;;;;;19.94;34.36;100300.72;5118737;28;839;-54
2021/03/24 00:51:02;;;;;;;;;;;;;;;19.74;34.58;100294.47;5119276;28;1913;-62
2021/03/24 00:53:28;;;;;;;;;;;;;;;19.16;35.94;100298.59;5119270;28;830;-58
2021/03/24 00:55:53;;;;;;;;;;;;;;;19.93;34.52;100305.41;5119033;28;807;-58
2021/03/24 00:58:19;;;;;;;;;;;;;;;20.68;33.11;100307.97;5118031;28;914;-59
2021/03/24 01:00:44;;;;;;;;;;;;;;;20.22;33.55;100309.78;5118809;28;980;-58
2021/03/24 01:03:10;;;;;;;;;;;;;;;19.92;34.25;100303.81;5118668;28;779;-58
2021/03/24 01:05:35;;;;;;;;;;;;;;;19.51;35.03;100310.09;5119075;28;766;-58
2021/03/24 01:08:05;;;;;;;;;;;;;;;19.61;34.98;100314.59;5118735;28;831;-56
2021/03/24 01:10:32;;;;;;;;;;;;;;;20.44;33.29;100314.53;5117470;28;1906;-58
2021/03/24 01:12:57;;;;;;;;;;;;;;;20.25;33.62;100316.63;5117974;28;1501;-62
2021/03/24 01:15:23;;;;;;;;;;;;;;;20.04;33.90;100321.78;5117447;28;1049;-57
2021/03/24 01:17:48;;;;;;;;;;;;;;;19.65;34.64;100315.63;5100095;28;875;-57
2021/03/24 01:20:14;;;;;;;;;;;;;;;19.24;35.51;100316.38;5117626;28;818;-56
2021/03/24 01:22:40;;;;;;;;;;;;;;;19.67;34.92;100313.38;5117095;28;803;-57
2021/03/24 01:25:06;;;;;;;;;;;;;;;20.42;33.21;100308.50;5117203;28;1089;-56
2021/03/24 01:27:31;;;;;;;;;;;;;;;19.98;33.91;100315.56;5117517;28;847;-61
2021/03/24 01:29:57;;;;;;;;;;;;;;;19.93;34.32;100316.44;5126693;27;938;-58
2021/03/24 01:32:22;;;;;;;;;;;;;;;19.45;35.27;100323.16;5137797;27;1913;-58
2021/03/24 01:34:47;;;;;;;;;;;;;;;19.66;35.07;100317.25;5139313;27;759;-54
2021/03/24 01:37:13;;;;;;;;;;;;;;;20.43;33.34;100321.19;5124742;27;833;-57
2021/03/24 01:39:39;;;;;;;;;;;;;;;20.34;33.52;100325.81;5118110;28;803;-53
2021/03/24 01:42:05;;;;;;;;;;;;;;;20.00;33.99;100321.56;5118285;28;775;-53
2021/03/24 01:44:30;;;;;;;;;;;;;;;19.56;34.65;100322.94;5122511;27;965;-54
2021/03/24 01:46:55;;;;;;;;;;;;;;;19.09;35.86;100314.69;5138468;27;743;-59
2021/03/24 01:49:28;;;;;;;;;;;;;;;19.97;34.31;100314.72;5137288;27;1069;-57
2021/03/24 01:51:57;;;;;;;;;;;;;;;20.55;32.91;100308.78;5138505;27;1971;-58
2021/03/24 01:54:28;;;;;;;;;;;;;;;20.05;34.08;100302.16;5136708;27;947;-55
2021/03/24 01:56:55;;;;;;;;;;;;;;;19.81;34.34;100305.09;5138729;27;843;-57
2021/03/24 01:59:21;;;;;;;;;;;;;;;19.33;35.18;100303.53;5137060;27;1025;-56
2021/03/24 02:01:46;;;;;;;;;;;;;;;19.92;34.13;100308.47;5138186;27;994;-56
2021/03/24 02:04:11;;;;;;;;;;;;;;;20.57;32.90;100312.88;5138160;27;1015;-55
2021/03/24 02:06:42;;;;;;;;;;;;;;;19.95;33.83;100316.97;5138453;27;779;-56
2021/03/24 02:09:08;;;;;;;;;;;;;;;19.95;33.94;100302.34;5135424;27;1173;-55
2021/03/24 02:11:34;;;;;;;;;;;;;;;19.37;35.24;100310.06;5116232;28;1985;-56
2021/03/24 02:14:11;;;;;;;;;;;;;;;19.15;35.45;100308.81;5116276;28;1014;-57
2021/03/24 02:16:38;;;;;;;;;;;;;;;20.14;33.63;100316.03;5117384;28;835;-58
2021/03/24 02:19:08;;;;;;;;;;;;;;;20.50;32.75;100302.25;5115897;28;953;-57
2021/03/24 02:21:34;;;;;;;;;;;;;;;20.04;33.62;100317.06;5116543;28;783;-58
2021/03/24 02:24:12;;;;;;;;;;;;;;;19.79;34.22;100305.41;5117115;28;834;-58
2021/03/24 02:26:39;;;;;;;;;;;;;;;19.70;34.50;100311.94;5115928;28;906;-56
2021/03/24 02:29:04;;;;;;;;;;;;;;;20.50;32.88;100318.00;5117298;28;985;-56
2021/03/24 02:31:30;;;;;;;;;;;;;;;20.35;33.10;100322.72;5115760;28;1965;-58
2021/03/24 02:33:56;;;;;;;;;;;;;;;20.12;33.48;100316.34;5115588;28;875;-58
2021/03/24 02:36:21;;;;;;;;;;;;;;;19.64;34.49;100319.47;5116298;28;989;-58
2021/03/24 02:38:47;;;;;;;;;;;;;;;19.79;34.35;100316.47;5115232;28;830;-58
2021/03/24 02:41:12;;;;;;;;;;;;;;;20.60;32.61;100322.47;5116013;28;843;-59
2021/03/24 02:43:38;;;;;;;;;;;;;;;21.10;31.69;100314.09;5116772;28;828;-56
2021/03/24 02:46:03;;;;;;;;;;;;;;;20.85;32.20;100313.59;5115157;28;962;-55
2021/03/24 02:48:30;;;;;;;;;;;;;;;20.43;32.88;100317.63;5115987;28;533;-52
2021/03/24 02:50:55;;;;;;;;;;;;;;;20.01;33.89;100314.94;5115725;28;1974;-57
2021/03/24 02:53:21;;;;;;;;;;;;;;;19.41;34.95;100307.53;5115423;28;744;-58
2021/03/24 02:55:47;;;;;;;;;;;;;;;19.14;35.53;100309.09;5116121;28;850;-55
2021/03/24 02:58:12;;;;;;;;;;;;;;;20.14;33.86;100305.00;5116195;28;796;-59
2021/03/24 03:00:38;;;;;;;;;;;;;;;20.53;32.63;100311.84;5116309;28;969;-55
2021/03/24 03:03:05;;;;;;;;;;;;;;;20.02;33.75;100302.78;5115861;28;783;-58
2021/03/24 03:05:32;;;;;;;;;;;;;;;19.92;33.88;100308.47;5115835;28;967;-58
2021/03/24 03:08:23;;;;;;;;;;;;;;;19.27;35.13;100313.00;5115299;28;859;-55
2021/03/24 03:10:59;;;;;;;;;;;;;;;20.32;33.08;100303.22;5113745;28;1909;-57
2021/03/24 03:13:26;;;;;;;;;;;;;;;20.35;32.99;100316.41;5115820;28;751;-55
2021/03/24 03:15:51;;;;;;;;;;;;;;;20.09;33.47;100308.69;5131123;28;950;-58
2021/03/24 03:18:40;;;;;;;;;;;;;;;19.74;34.23;100301.91;5136071;28;1037;-58
2021/03/24 03:21:07;;;;;;;;;;;;;;;19.72;34.16;100309.69;5128882;28;1143;-56
2021/03/24 03:23:33;;;;;;;;;;;;;;;20.49;32.81;100322.69;5135738;28;819;-58
2021/03/24 03:26:07;;;;;;;;;;;;;;;20.33;32.79;100329.72;5137238;28;751;-55
2021/03/24 03:28:32;;;;;;;;;;;;;;;20.11;33.33;100339.53;5135985;28;764;-56
2021/03/24 03:30:58;;;;;;;;;;;;;;;19.69;34.19;100354.44;5135370;28;1909;-56
2021/03/24 03:33:24;;;;;;;;;;;;;;;19.29;34.94;100341.09;5136104;28;819;-57
2021/03/24 03:35:51;;;;;;;;;;;;;;;20.20;33.23;100352.63;5136855;28;763;-55
2021/03/24 03:38:17;;;;;;;;;;;;;;;20.32;33.11;100363.97;5135728;28;799;-57
2021/03/24 03:40:42;;;;;;;;;;;;;;;20.07;33.31;100366.13;5136038;28;866;-58
2021/03/24 03:43:08;;;;;;;;;;;;;;;19.77;34.08;100370.28;5137046;28;830;-57
2021/03/24 03:45:36;;;;;;;;;;;;;;;19.31;34.96;100374.69;5135553;28;976;-51
2021/03/24 03:48:02;;;;;;;;;;;;;;;20.13;33.29;100375.94;5135927;28;833;-57
2021/03/24 03:50:27;;;;;;;;;;;;;;;20.82;32.10;100379.75;5137385;27;1010;-57
2021/03/24 03:53:02;;;;;;;;;;;;;;;20.14;33.11;100382.28;5139490;27;1917;-56
2021/03/24 03:55:40;;;;;;;;;;;;;;;19.81;33.98;100397.00;5139158;27;830;-59
2021/03/24 03:58:06;;;;;;;;;;;;;;;19.25;35.11;100411.72;5140792;27;798;-58
2021/03/24 04:00:32;;;;;;;;;;;;;;;19.97;33.62;100410.50;5139122;27;949;-57
2021/03/24 04:02:58;;;;;;;;;;;;;;;20.63;32.42;100410.25;5139111;27;929;-58
2021/03/24 04:05:28;;;;;;;;;;;;;;;20.08;33.37;100411.13;5139488;27;751;-55
2021/03/24 04:07:55;;;;;;;;;;;;;;;19.95;33.69;100419.09;5139254;27;739;-58
2021/03/24 04:10:21;;;;;;;;;;;;;;;19.31;35.01;100421.56;5127550;27;1102;-58
2021/03/24 04:12:46;;;;;;;;;;;;;;;19.62;34.36;100432.06;5119023;28;1913;-48
2021/03/24 04:15:13;;;;;;;;;;;;;;;20.42;32.84;100441.06;5119374;28;890;-50
2021/03/24 04:17:42;;;;;;;;;;;;;;;20.12;33.49;100440.56;5100635;28;902;-48
2021/03/24 04:20:07;;;;;;;;;;;;;;;19.95;33.62;100443.91;5120509;27;915;-46
2021/03/24 04:22:33;;;;;;;;;;;;;;;19.46;34.78;100445.28;5118253;28;794;-47
2021/03/24 04:24:58;;;;;;;;;;;;;;;19.39;35.11;100439.34;5118282;28;810;-55
2021/03/24 04:27:24;;;;;;;;;;;;;;;20.30;33.08;100446.28;5118633;28;846;-54
2021/03/24 04:29:51;;;;;;;;;;;;;;;20.20;33.26;100444.53;5108717;27;1132;-50
2021/03/24 04:32:17;;;;;;;;;;;;;;;19.93;34.04;100456.38;5138842;27;1913;-58
2021/03/24 04:34:42;;;;;;;;;;;;;;;19.57;34.44;100466.09;5140494;27;830;-50
2021/03/24 04:37:11;;;;;;;;;;;;;;;19.29;35.09;100463.22;5138246;27;902;-67
2021/03/24 04:39:41;;;;;;;;;;;;;;;20.23;33.24;100471.56;5140158;27;821;-58
2021/03/24 04:42:33;;;;;;;;;;;;;;;20.16;33.52;100480.22;5138860;27;747;-50
2021/03/24 04:45:13;;;;;;;;;;;;;;;19.93;34.01;100482.03;5115203;27;1285;-54
2021/03/24 04:47:38;;;;;;;;;;;;;;;19.45;34.62;100477.56;5138237;27;829;-55
2021/03/24 04:50:05;;;;;;;;;;;;;;;19.09;35.59;100485.56;5117596;28;1003;-65
2021/03/24 04:52:30;;;;;;;;;;;;;;;19.97;33.75;100485.00;5117138;28;1906;-55
2021/03/24 04:54:56;;;;;;;;;;;;;;;20.25;33.16;100488.63;5117821;27;1514;-58
2021/03/24 04:57:23;;;;;;;;;;;;;;;19.87;33.79;100496.25;5130760;27;847;-61
2021/03/24 04:59:50;;;;;;;;;;;;;;;19.63;34.44;100500.72;5117530;28;1021;-57
2021/03/24 05:02:20;;;;;;;;;;;;;;;19.17;35.28;100506.09;5121821;27;787;-53
2021/03/24 05:04:47;;;;;;;;;;;;;;;20.06;33.51;100499.72;5117877;28;846;-49
2021/03/24 05:07:18;;;;;;;;;;;;;;;20.18;33.17;100508.34;5137124;27;752;-48
2021/03/24 05:09:44;;;;;;;;;;;;;;;19.87;33.84;100505.31;5125508;27;1197;-47
2021/03/24 05:12:11;;;;;;;;;;;;;;;19.56;34.29;100504.97;5120724;27;1956;-46
2021/03/24 05:14:40;;;;;;;;;;;;;;;19.06;35.37;100506.25;5131793;27;957;-51
2021/03/24 05:17:07;;;;;;;;;;;;;;;19.93;33.75;100508.81;5118940;28;924;-47
2021/03/24 05:19:32;;;;;;;;;;;;;;;20.62;32.48;100500.59;5116713;28;969;-62
2021/03/24 05:22:33;;;;;;;;;;;;;;;20.01;33.76;100510.88;5116852;28;1204;-50
2021/03/24 05:25:04;;;;;;;;;;;;;;;19.67;33.96;100504.50;5055850;28;1332;-47
2021/03/24 05:27:32;;;;;;;;;;;;;;;19.14;35.17;100504.78;5108109;28;962;-59
2021/03/24 05:29:58;;;;;;;;;;;;;;;19.77;33.99;100511.81;5118063;28;1024;-48
2021/03/24 05:32:25;;;;;;;;;;;;;;;20.56;32.57;100510.09;5118509;28;1909;-50
2021/03/24 05:34:51;;;;;;;;;;;;;;;19.96;33.45;100514.56;5117274;28;755;-49
2021/03/24 05:37:16;;;;;;;;;;;;;;;19.87;33.90;100518.31;5117041;28;736;-51
2021/03/24 05:39:42;;;;;;;;;;;;;;;19.39;34.65;100522.06;5117352;28;806;-48
2021/03/24 05:42:11;;;;;;;;;;;;;;;19.72;34.09;100519.34;5117126;28;963;-47
2021/03/24 05:44:49;;;;;;;;;;;;;;;20.52;32.59;100528.41;5117594;28;917;-46
2021/03/24 05:47:28;;;;;;;;;;;;;;;20.16;32.98;100538.19;5118097;28;854;-64
2021/03/24 05:50:12;;;;;;;;;;;;;;;19.99;33.66;100541.53;5117222;28;1189;-58
2021/03/24 05:52:41;;;;;;;;;;;;;;;19.39;34.84;100542.19;5118198;28;1925;-60
2021/03/24 05:55:06;;;;;;;;;;;;;;;19.22;35.07;100541.88;5118075;28;799;-55
2021/03/24 05:57:50;;;;;;;;;;;;;;;20.06;33.33;100537.56;5117851;28;834;-57
2021/03/24 06:00:24;;;;;;;;;;;;;;;20.26;32.95;100534.44;5118161;28;1044;-65
2021/03/24 06:02:58;;;;;;;;;;;;;;;19.88;33.84;100533.72;5116950;28;813;-63
2021/03/24 06:05:38;;;;;;;;;;;;;;;19.59;34.28;100540.25;5117792;28;778;-53
2021/03/24 06:08:07;;;;;;;;;;;;;;;19.19;35.11;100540.53;5116668;28;866;-63
2021/03/24 06:10:33;;;;;;;;;;;;;;;20.02;33.30;100540.13;5116810;28;1134;-48
2021/03/24 06:13:17;;;;;;;;;;;;;;;20.64;32.13;100541.72;5116560;28;1971;-47
2021/03/24 06:15:42;;;;;;;;;;;;;;;19.99;33.40;100537.94;5132450;27;954;-51
2021/03/24 06:18:15;;;;;;;;;;;;;;;19.86;33.67;100542.31;5138323;27;834;-62
2021/03/24 06:20:55;;;;;;;;;;;;;;;19.40;34.26;100545.75;5119332;27;816;-66
2021/03/24 06:23:24;;;;;;;;;;;;;;;19.97;33.47;100549.28;5137095;27;881;-51
2021/03/24 06:25:58;;;;;;;;;;;;;;;20.74;31.90;100549.84;5126679;27;1500;-66
2021/03/24 06:28:44;;;;;;;;;;;;;;;20.07;32.91;100548.28;5096502;28;847;-63
2021/03/24 06:31:28;;;;;;;;;;;;;;;19.85;33.50;100535.13;5091136;28;1906;-52
2021/03/24 06:34:13;;;;;;;;;;;;;;;19.23;34.42;100538.00;5097033;28;843;-55
2021/03/24 06:36:50;;;;;;;;;;;;;;;19.64;33.86;100543.75;5096696;28;739;-54
2021/03/24 06:39:20;;;;;;;;;;;;;;;20.47;32.50;100542.34;5096993;28;755;-67
2021/03/24 06:41:46;;;;;;;;;;;;;;;19.91;33.39;100539.47;5095587;28;807;-55
2021/03/24 06:44:29;;;;;;;;;;;;;;;19.85;33.61;100545.38;5098386;28;974;-66
2021/03/24 06:47:01;;;;;;;;;;;;;;;19.09;35.02;100544.25;5117361;28;696;-58
2021/03/24 06:49:36;;;;;;;;;;;;;;;20.01;33.07;100541.22;5116837;28;994;-48
2021/03/24 06:52:21;;;;;;;;;;;;;;;20.39;32.62;100532.00;5099273;28;1974;-59
2021/03/24 06:54:46;;;;;;;;;;;;;;;19.95;33.47;100534.16;5117024;28;759;-54
2021/03/24 06:57:30;;;;;;;;;;;;;;;19.76;33.68;100542.44;5117045;28;883;-53
2021/03/24 07:00:14;;;;;;;;;;;;;;;19.18;34.62;100540.81;5117002;28;1022;-64
2021/03/24 07:02:39;;;;;;;;;;;;;;;20.13;33.01;100533.28;5116921;28;834;-66
2021/03/24 07:05:11;;;;;;;;;;;;;;;20.63;31.97;100542.84;5116647;28;748;-58
2021/03/24 07:07:42;;;;;;;;;;;;;;;20.03;33.07;100544.50;5117101;28;759;-59
2021/03/24 07:10:31;;;;;;;;;;;;;;;19.81;33.49;100539.63;5115897;28;1123;-47
2021/03/24 07:13:15;;;;;;;;;;;;;;;19.22;34.33;100544.63;5108250;28;1901;-53
2021/03/24 07:15:49;;;;;;;;;;;;;;;19.97;33.22;100554.81;5130084;28;1013;-60
2021/03/24 07:18:34;;;;;;;;;;;;;;;20.67;31.84;100552.16;5137339;27;789;-61
2021/03/24 07:21:18;;;;;;;;;;;;;;;20.18;32.55;100560.78;5137179;27;794;-51
2021/03/24 07:23:48;;;;;;;;;;;;;;;19.78;33.24;100562.28;5138767;27;767;-59
2021/03/24 07:26:32;;;;;;;;;;;;;;;19.54;33.90;100562.38;5141576;27;771;-61
2021/03/24 07:29:07;;;;;;;;;;;;;;;19.88;33.12;100566.84;5141395;27;949;-51
2021/03/24 07:31:51;;;;;;;;;;;;;;;20.51;31.88;100571.81;5141232;27;1917;-45
2021/03/24 07:34:27;;;;;;;;;;;;;;;20.02;32.86;100566.88;5141064;27;775;-47
2021/03/24 07:37:07;;;;;;;;;;;;;;;19.76;33.27;100592.91;5141733;27;767;-46
2021/03/24 07:39:39;;;;;;;;;;;;;;;19.16;34.79;100579.72;5141313;27;889;-46
2021/03/24 07:42:04;;;;;;;;;;;;;;;20.06;33.02;100590.81;5141414;27;759;-45
2021/03/24 07:44:49;;;;;;;;;;;;;;;20.25;32.40;100598.25;5139879;27;1020;-49
2021/03/24 07:47:26;;;;;;;;;;;;;;;20.06;32.72;100593.56;5141569;27;754;-61
2021/03/24 07:49:58;;;;;;;;;;;;;;;19.72;33.59;100589.13;5123576;27;1092;-45
2021/03/24 07:52:42;;;;;;;;;;;;;;;19.61;33.86;100595.91;5098800;28;1909;-58
2021/03/24 07:55:17;;;;;;;;;;;;;;;20.46;32.08;100598.69;5099113;28;834;-62
2021/03/24 07:58:01;;;;;;;;;;;;;;;20.21;32.48;100597.22;5098069;28;884;-64
2021/03/24 08:00:35;;;;;;;;;;;;;;;19.99;32.75;100593.13;5112336;28;954;-55
2021/03/24 08:03:05;;;;;;;;;;;;;;;19.45;34.03;100604.41;5120402;28;791;-65
2021/03/24 08:05:37;;;;;;;;;;;;;;;19.70;33.45;100604.31;5119247;28;759;-66
2021/03/24 08:08:23;;;;;;;;;;;;;;;20.60;31.88;100609.78;5120483;28;815;-50
2021/03/24 08:10:52;;;;;;;;;;;;;;;20.12;32.61;100616.41;5118749;28;1913;-58
2021/03/24 08:13:40;;;;;;;;;;;;;;;19.94;33.15;100615.31;5119936;28;873;-61
2021/03/24 08:16:25;;;;;;;;;;;;;;;19.28;34.20;100598.59;5093116;28;1018;-62
2021/03/24 08:18:59;;;;;;;;;;;;;;;19.87;33.25;100614.88;5099246;28;764;-59
2021/03/24 08:21:26;;;;;;;;;;;;;;;20.69;31.67;100613.47;5099466;28;740;-58
2021/03/24 08:24:00;;;;;;;;;;;;;;;20.13;32.41;100624.41;5098222;28;744;-53
2021/03/24 08:26:34;;;;;;;;;;;;;;;19.91;32.79;100632.47;5102921;27;1554;-63
2021/03/24 08:29:02;;;;;;;;;;;;;;;19.31;33.95;100633.84;5125593;27;930;-48
2021/03/24 08:31:40;;;;;;;;;;;;;;;19.94;32.81;100638.22;5118594;28;1930;-55
2021/03/24 08:34:05;;;;;;;;;;;;;;;20.67;31.62;100627.59;5119394;28;882;-54
2021/03/24 08:36:31;;;;;;;;;;;;;;;20.08;32.59;100627.22;5118755;28;814;-48
2021/03/24 08:39:02;;;;;;;;;;;;;;;19.97;32.58;100639.56;5119985;28;751;-57
2021/03/24 08:41:46;;;;;;;;;;;;;;;19.42;33.85;100643.63;5119012;28;747;-52
2021/03/24 08:44:15;;;;;;;;;;;;;;;19.87;32.86;100642.47;5119188;28;976;-47
2021/03/24 08:46:52;;;;;;;;;;;;;;;20.64;31.81;100639.22;5119514;28;882;-62
2021/03/24 08:49:18;;;;;;;;;;;;;;;20.00;32.42;100644.47;5117397;28;1176;-60
2021/03/24 08:51:53;;;;;;;;;;;;;;;19.85;32.79;100641.94;5118166;28;1965;-52
2021/03/24 08:54:31;;;;;;;;;;;;;;;19.37;33.87;100640.91;5119203;28;779;-66
2021/03/24 08:56:56;;;;;;;;;;;;;;;19.30;33.82;100638.50;5119059;28;835;-57
2021/03/24 08:59:25;;;;;;;;;;;;;;;20.17;32.55;100653.03;5118973;28;1024;-59
2021/03/24 09:02:00;;;;;;;;;;;;;;;20.80;31.11;100652.78;5117895;28;775;-57
2021/03/24 09:04:32;;;;;;;;;;;;;;;21.05;30.62;100643.19;5118748;28;815;-60
2021/03/24 09:07:01;;;;;;;;;;;;;;;20.36;32.00;100638.38;5118060;28;747;-56
2021/03/24 09:09:40;;;;;;;;;;;;;;;20.14;32.20;100648.09;5117219;28;1154;-61
2021/03/24 09:12:12;;;;;;;;;;;;;;;19.41;33.50;100639.22;5117314;28;1988;-49
2021/03/24 09:14:56;;;;;;;;;;;;;;;19.45;33.74;100648.53;5124606;27;1005;-49
2021/03/24 09:17:24;;;;;;;;;;;;;;;20.42;31.79;100636.34;5119159;27;1470;-54
2021/03/24 09:20:09;;;;;;;;;;;;;;;20.06;32.34;100648.78;5100319;28;1225;-57
2021/03/24 09:22:47;;;;;;;;;;;;;;;20.05;32.28;100624.22;5117480;28;1387;-58
2021/03/24 09:25:12;;;;;;;;;;;;;;;19.34;33.85;100636.00;5116364;28;1134;-51
2021/03/24 09:27:56;;;;;;;;;;;;;;;19.90;32.89;100631.66;5118716;28;1110;-56
2021/03/24 09:30:25;;;;;;;;;;;;;;;20.54;31.49;100622.84;5130637;27;945;-62
2021/03/24 09:32:53;;;;;;;;;;;;;;;19.96;32.53;100635.97;5138804;27;1913;-59
2021/03/24 09:35:48;;;;;;;;;;;;;;;19.74;32.75;100639.31;5135299;27;780;-57
2021/03/24 09:38:19;;;;;;;;;;;;;;;19.26;33.86;100625.63;5106615;28;1364;-51
2021/03/24 09:40:46;;;;;;;;;;;;;;;19.64;33.12;100633.94;5118180;28;814;-58
2021/03/24 09:43:22;;;;;;;;;;;;;;;20.49;31.62;100631.22;5118145;28;1177;-59
2021/03/24 09:46:03;;;;;;;;;;;;;;;20.17;31.96;100630.94;5113338;27;1170;-55
2021/03/24 09:48:29;;;;;;;;;;;;;;;20.08;32.32;100643.78;5116107;28;909;-60
2021/03/24 09:50:55;;;;;;;;;;;;;;;19.58;33.00;100621.34;5116883;27;1905;-58
2021/03/24 09:53:22;;;;;;;;;;;;;;;19.71;32.75;100628.03;5138598;27;778;-62
2021/03/24 09:56:00;;;;;;;;;;;;;;;20.47;31.62;100625.19;5122586;27;1142;-54
2021/03/24 09:58:29;;;;;;;;;;;;;;;20.15;32.08;100619.38;5116076;28;853;-57
2021/03/24 10:01:15;;;;;;;;;;;;;;;19.94;32.25;100634.63;5117911;28;866;-61
2021/03/24 10:04:19;;;;;;;;;;;;;;;19.54;33.39;100628.56;5116359;28;894;-64
2021/03/24 10:07:01;;;;;;;;;;;;;;;19.83;32.82;100632.00;5094534;28;994;-54
2021/03/24 10:09:35;;;;;;;;;;;;;;;20.71;31.13;100624.25;5095612;28;759;-64
2021/03/24 10:12:16;;;;;;;;;;;;;;;20.09;32.13;100623.34;5109703;28;1914;-56
2021/03/24 10:14:41;;;;;;;;;;;;;;;19.89;32.64;100623.66;5117065;28;779;-56
2021/03/24 10:17:10;;;;;;;;;;;;;;;19.25;33.59;100612.94;5117935;28;787;-49
2021/03/24 10:19:37;;;;;;;;;;;;;;;19.85;32.78;100623.44;5098753;28;980;-48
2021/03/24 10:22:10;;;;;;;;;;;;;;;20.62;31.16;100629.59;5115924;28;965;-46
2021/03/24 10:24:43;;;;;;;;;;;;;;;20.21;32.15;100624.81;5124576;27;1404;-67
2021/03/24 10:27:09;;;;;;;;;;;;;;;19.94;32.49;100624.41;5130737;27;1008;-49
2021/03/24 10:29:48;;;;;;;;;;;;;;;19.39;33.43;100646.97;5136843;27;755;-46
2021/03/24 10:32:21;;;;;;;;;;;;;;;19.54;33.28;100639.59;5118043;27;1982;-60
2021/03/24 10:34:47;;;;;;;;;;;;;;;20.39;31.69;100635.00;5137261;27;838;-66
2021/03/24 10:37:15;;;;;;;;;;;;;;;20.28;31.52;100630.75;5129399;27;1504;-46
2021/03/24 10:39:43;;;;;;;;;;;;;;;20.06;32.23;100623.94;5118771;27;779;-51
2021/03/24 10:42:27;;;;;;;;;;;;;;;19.71;32.58;100626.09;5115693;28;814;-49
2021/03/24 10:45:11;;;;;;;;;;;;;;;19.15;33.67;100623.00;5115653;28;807;-62
2021/03/24 10:47:38;;;;;;;;;;;;;;;20.10;31.95;100624.97;5116893;28;870;-46
2021/03/24 10:50:22;;;;;;;;;;;;;;;20.40;31.42;100620.06;5115895;28;1205;-61
2021/03/24 10:53:05;;;;;;;;;;;;;;;20.04;31.93;100612.38;5116868;28;1984;-47
2021/03/24 10:55:31;;;;;;;;;;;;;;;19.59;32.91;100620.22;5115758;28;839;-46
2021/03/24 10:57:59;;;;;;;;;;;;;;;19.12;33.72;100617.25;5116778;28;839;-45
2021/03/24 11:00:31;;;;;;;;;;;;;;;20.05;32.17;100610.44;5115545;28;854;-46
2021/03/24 11:03:15;;;;;;;;;;;;;;;20.68;30.95;100606.34;5098522;28;1450;-56
2021/03/24 11:05:40;;;;;;;;;;;;;;;20.00;32.21;100614.91;5116725;28;739;-44
2021/03/24 11:08:27;;;;;;;;;;;;;;;19.78;32.63;100618.28;5116665;28;1004;-65
2021/03/24 11:10:58;;;;;;;;;;;;;;;19.11;33.96;100616.44;5115944;28;1905;-44
2021/03/24 11:13:58;;;;;;;;;;;;;;;20.05;32.20;100604.91;5115616;28;779;-49
2021/03/24 11:16:27;;;;;;;;;;;;;;;20.39;31.45;100604.59;5054054;28;1355;-45
2021/03/24 11:19:05;;;;;;;;;;;;;;;20.03;32.29;100613.50;5100810;28;1331;-44
2021/03/24 11:21:32;;;;;;;;;;;;;;;19.69;32.95;100624.78;5114716;28;962;-45
2021/03/24 11:24:04;;;;;;;;;;;;;;;19.52;33.38;100619.75;5115415;28;847;-49
2021/03/24 11:26:36;;;;;;;;;;;;;;;20.35;31.64;100620.94;5115706;28;823;-45
2021/03/24 11:29:02;;;;;;;;;;;;;;;20.33;31.76;100628.75;5117031;28;767;-43
2021/03/24 11:31:39;;;;;;;;;;;;;;;19.95;32.57;100639.00;5115073;28;1984;-49
2021/03/24 11:34:06;;;;;;;;;;;;;;;19.80;32.49;100635.38;5115544;28;795;-52
2021/03/24 11:36:52;;;;;;;;;;;;;;;19.36;33.67;100639.25;5120324;28;1014;-52
2021/03/24 11:39:17;;;;;;;;;;;;;;;19.77;32.58;100627.69;5136130;28;833;-55
2021/03/24 11:41:43;;;;;;;;;;;;;;;20.48;31.48;100630.41;5137341;27;835;-58
2021/03/24 11:44:10;;;;;;;;;;;;;;;20.12;32.07;100622.75;5135860;28;830;-53
2021/03/24 11:46:38;;;;;;;;;;;;;;;20.05;32.19;100627.84;5137470;28;801;-56
2021/03/24 11:49:06;;;;;;;;;;;;;;;19.43;33.30;100628.72;5130813;28;882;-60
2021/03/24 11:51:56;;;;;;;;;;;;;;;19.67;33.08;100633.34;5122222;28;1909;-48
2021/03/24 11:54:38;;;;;;;;;;;;;;;20.62;31.27;100643.41;5137348;28;739;-45
2021/03/24 11:57:03;;;;;;;;;;;;;;;20.07;32.32;100647.66;5136547;28;759;-49
2021/03/24 11:59:47;;;;;;;;;;;;;;;19.91;32.65;100649.00;5137516;28;802;-48
2021/03/24 12:02:35;;;;;;;;;;;;;;;19.33;33.55;100645.38;5137396;28;739;-48
2021/03/24 12:05:05;;;;;;;;;;;;;;;19.95;32.48;100644.53;5127922;28;1183;-61
2021/03/24 12:07:49;;;;;;;;;;;;;;;20.65;31.15;100637.28;5136732;27;965;-51
2021/03/24 12:10:22;;;;;;;;;;;;;;;20.33;31.75;100636.22;5137184;27;807;-60
2021/03/24 12:12:57;;;;;;;;;;;;;;;19.86;32.78;100633.38;5140174;27;1974;-46
2021/03/24 12:15:28;;;;;;;;;;;;;;;19.26;33.73;100639.41;5140930;27;786;-47
2021/03/24 12:18:03;;;;;;;;;;;;;;;19.93;32.75;100635.75;5138949;27;811;-51
2021/03/24 12:20:28;;;;;;;;;;;;;;;20.63;31.55;100642.31;5140203;27;755;-45
2021/03/24 12:22:55;;;;;;;;;;;;;;;20.34;31.71;100635.06;5140136;27;1024;-56
2021/03/24 12:25:21;;;;;;;;;;;;;;;20.18;32.09;100635.31;5140225;27;818;-58
2021/03/24 12:27:48;;;;;;;;;;;;;;;19.76;32.85;100637.06;5140196;27;797;-49
2021/03/24 12:30:26;;;;;;;;;;;;;;;19.42;33.54;100635.34;5140414;27;811;-57
2021/03/24 12:32:51;;;;;;;;;;;;;;;19.61;32.98;100634.53;5120953;27;1910;-54
2021/03/24 12:35:29;;;;;;;;;;;;;;;20.42;31.77;100633.56;5119801;28;782;-57
2021/03/24 12:38:14;;;;;;;;;;;;;;;20.15;32.01;100640.66;5101567;28;1299;-58
2021/03/24 12:40:54;;;;;;;;;;;;;;;20.10;32.16;100649.81;5098203;28;1412;-52
2021/03/24 12:43:52;;;;;;;;;;;;;;;19.57;33.10;100639.84;5114749;28;767;-55
2021/03/24 12:46:19;;;;;;;;;;;;;;;19.88;32.81;100646.84;5095197;28;1199;-48
2021/03/24 12:48:54;;;;;;;;;;;;;;;20.64;31.37;100649.47;5119101;28;839;-60
2021/03/24 12:51:28;;;;;;;;;;;;;;;20.20;31.82;100645.25;5108123;27;1995;-64
2021/03/24 12:53:56;;;;;;;;;;;;;;;20.07;32.27;100647.66;5097620;28;828;-45
2021/03/24 12:56:31;;;;;;;;;;;;;;;19.40;33.53;100656.06;5098686;28;755;-50
2021/03/24 12:58:56;;;;;;;;;;;;;;;19.67;32.83;100641.63;5098677;28;819;-57
2021/03/24 13:01:25;;;;;;;;;;;;;;;20.46;31.51;100640.94;5097413;28;856;-45
2021/03/24 13:03:53;;;;;;;;;;;;;;;20.47;31.33;100650.06;5096756;28;835;-58
2021/03/24 13:06:22;;;;;;;;;;;;;;;20.12;32.23;100646.78;5100081;28;1128;-47
2021/03/24 13:08:53;;;;;;;;;;;;;;;19.72;32.66;100655.34;5110510;28;1100;-53
2021/03/24 13:11:48;;;;;;;;;;;;;;;19.21;33.77;100644.97;5100550;28;1905;-56
2021/03/24 13:14:23;;;;;;;;;;;;;;;19.94;32.57;100646.47;5109651;28;1165;-57